createdAt,value
2023-02-27T00:00:15.021Z,1.80
2023-02-27T00:02:46.999Z,2.00
2023-02-27T00:05:14.481Z,1.90
2023-02-27T00:07:41.511Z,1.90
2023-02-27T00:10:09.882Z,2.20
2023-02-27T00:12:38.471Z,2.20
2023-02-27T00:15:18.385Z,2.10
2023-02-27T00:17:45.702Z,2.50
2023-02-27T00:20:14.745Z,2.60
2023-02-27T00:22:42.465Z,2.70
2023-02-27T00:25:10.329Z,2.70
2023-02-27T00:27:37.673Z,2.80
2023-02-27T00:30:10.870Z,2.80
2023-02-27T00:32:37.718Z,2.90
2023-02-27T00:35:06.273Z,3.00
2023-02-27T00:37:34.532Z,2.90
2023-02-27T00:40:01.662Z,2.90
2023-02-27T00:42:30.937Z,2.90
2023-02-27T00:44:58.050Z,2.90
2023-02-27T00:47:25.062Z,2.90
2023-02-27T00:49:52.083Z,2.80
2023-02-27T00:52:18.927Z,2.50
2023-02-27T00:54:45.788Z,2.70
2023-02-27T00:57:12.577Z,2.80
2023-02-27T00:59:39.873Z,3.10
2023-02-27T01:02:06.855Z,3.00
2023-02-27T01:04:33.673Z,3.00
2023-02-27T01:07:00.548Z,3.00
2023-02-27T01:09:27.492Z,3.20
2023-02-27T01:11:54.272Z,3.30
2023-02-27T01:14:21.206Z,3.10
2023-02-27T01:16:48.101Z,3.10
2023-02-27T01:19:15.808Z,3.30
2023-02-27T01:21:42.705Z,3.10
2023-02-27T01:24:10.672Z,3.10
2023-02-27T01:26:38.031Z,2.90
2023-02-27T01:29:06.491Z,2.80
2023-02-27T01:31:33.915Z,2.60
2023-02-27T01:34:00.913Z,2.60
2023-02-27T01:36:28.142Z,2.80
2023-02-27T01:38:55.075Z,2.90
2023-02-27T01:41:21.999Z,3.00
2023-02-27T01:44:03.795Z,3.00
2023-02-27T01:46:32.106Z,2.90
2023-02-27T01:49:05.672Z,2.90
2023-02-27T01:51:37.166Z,2.80
2023-02-27T01:54:07.362Z,2.50
2023-02-27T01:56:34.645Z,2.70
2023-02-27T01:59:09.013Z,3.00
2023-02-27T02:01:36.420Z,2.70
